Villa Hills, Kentucky
Current Conditions -  °F | °C
As of 12:58 AM on Friday 28 Nov 2014 (Local Time) from KI69 Reporting Station
Overcast Overcast  
Wind Chill: 21°   Ceiling: 4000
Heat Index: 30°   Visibility: 10mi
Dew Point: 18°   Wind: 12mph
Humidity: 60%   Direction: 300°WNW
Pressure: 30.39"   Gusts: 17mph
Location:  39.0279°N, 84.5635°W
Report Text: KI69 280558Z AUTO 30010G15KT 10SM SCT034 OVC040 M01/M08 A3039 RMK AO1
Loading
Personal Weather Stations






























Interactive Weather Map New forecast layout! Learn more

10-Day Weather Forecast

Advertisements
Track Severe Weather on mobile